Time;durP1;ratioP1;P1;durP2;ratioP2;P2;SDS_P1;SDS_P2;PMS_P1;PMS_P2;Temp;Humidity;BMP_temperature;BMP_pressure;BME280_temperature;BME280_humidity;BME280_pressure;Samples;Min_cycle;Max_cycle;Signal;HPM_P1;HPM_P2
2022/12/24 00:01:00;;;;;;;10.63;2.47;;;;;;;13.32;72.15;100005.22;5082694;28;20323;-61
2022/12/24 00:03:28;;;;;;;10.10;2.10;;;;;;;13.31;72.46;99992.91;5084363;28;20306;-61
2022/12/24 00:05:56;;;;;;;14.03;2.20;;;;;;;13.33;71.85;100012.19;5086918;28;20241;-61
2022/12/24 00:08:24;;;;;;;9.50;2.10;;;;;;;13.23;74.05;100027.56;5084830;28;20208;-60
2022/12/24 00:10:53;;;;;;;11.83;1.90;;;;;;;13.23;73.87;100022.25;5080827;28;20215;-60
2022/12/24 00:13:22;;;;;;;9.70;2.10;;;;;;;13.19;73.06;100032.44;5087094;28;20776;-61
2022/12/24 00:15:50;;;;;;;8.87;2.10;;;;;;;13.15;73.58;100031.94;5081754;28;20212;-60
2022/12/24 00:18:18;;;;;;;12.13;2.90;;;;;;;13.11;74.13;100030.59;5086369;28;20204;-62
2022/12/24 00:20:48;;;;;;;12.53;2.90;;;;;;;13.06;74.09;100034.78;5082897;28;20203;-61
2022/12/24 00:23:16;;;;;;;10.43;2.87;;;;;;;13.01;74.64;100031.81;5085278;28;20208;-61
2022/12/24 00:25:44;;;;;;;11.50;3.13;;;;;;;12.93;74.89;100037.19;5083781;28;20203;-61
2022/12/24 00:28:12;;;;;;;14.43;2.27;;;;;;;12.94;75.67;100031.66;5083646;28;20218;-61
2022/12/24 00:30:43;;;;;;;11.30;2.50;;;;;;;12.94;76.05;100050.31;5086551;28;20663;-61
2022/12/24 00:33:11;;;;;;;16.00;3.03;;;;;;;12.94;77.24;100044.97;5082941;28;20207;-61
2022/12/24 00:35:40;;;;;;;10.83;2.20;;;;;;;12.99;76.79;100055.13;5083708;28;20330;-60
2022/12/24 00:38:08;;;;;;;10.00;2.20;;;;;;;12.92;77.17;100057.66;5088264;28;20269;-62
2022/12/24 00:40:36;;;;;;;10.67;2.90;;;;;;;12.87;77.80;100049.34;5080213;28;20212;-61
2022/12/24 00:43:04;;;;;;;15.63;2.67;;;;;;;12.86;78.08;100060.16;5087011;28;20203;-61
2022/12/24 00:45:32;;;;;;;10.50;2.30;;;;;;;12.84;78.07;100067.50;5081713;28;20695;-63
2022/12/24 00:48:01;;;;;;;15.53;2.27;;;;;;;12.85;78.20;100063.81;5087790;28;20304;-60
2022/12/24 00:50:29;;;;;;;10.00;2.40;;;;;;;12.81;78.83;100076.66;5082363;28;21050;-61
2022/12/24 00:52:56;;;;;;;9.93;2.10;;;;;;;12.82;78.71;100062.34;5085086;28;20213;-61
2022/12/24 00:55:24;;;;;;;11.90;3.03;;;;;;;12.85;77.95;100063.81;5081097;28;20230;-60
2022/12/24 00:57:52;;;;;;;9.37;2.20;;;;;;;12.82;77.44;100071.16;5081214;28;20260;-60
2022/12/24 01:00:20;;;;;;;12.27;2.60;;;;;;;12.81;77.20;100061.53;5081055;28;20504;-60
2022/12/24 01:02:48;;;;;;;16.87;2.80;;;;;;;12.83;76.90;100074.66;5083757;28;20276;-60
2022/12/24 01:05:19;;;;;;;9.97;2.27;;;;;;;12.82;74.94;100079.16;5082222;28;20236;-61
2022/12/24 01:07:47;;;;;;;7.47;1.90;;;;;;;12.79;74.51;100079.47;5083400;28;20219;-61
2022/12/24 01:10:19;;;;;;;9.50;2.10;;;;;;;12.81;73.79;100087.28;5079127;28;20298;-61
2022/12/24 01:12:47;;;;;;;14.03;3.03;;;;;;;12.78;74.59;100093.78;5086668;28;20228;-60
2022/12/24 01:15:15;;;;;;;14.57;2.70;;;;;;;12.81;74.53;100103.25;5082342;28;20229;-59
2022/12/24 01:17:43;;;;;;;13.53;2.30;;;;;;;12.81;73.83;100103.25;5084260;28;20207;-61
2022/12/24 01:20:15;;;;;;;14.53;2.50;;;;;;;12.83;73.71;100109.25;5080571;28;20205;-61
2022/12/24 01:22:49;;;;;;;14.30;2.60;;;;;;;12.87;73.02;100105.22;5082156;28;20222;-62
2022/12/24 01:25:18;;;;;;;14.97;2.23;;;;;;;12.90;71.84;100112.03;5084568;28;20214;-61
2022/12/24 01:27:45;;;;;;;11.03;1.77;;;;;;;12.90;70.50;100114.69;5081109;28;20259;-60
2022/12/24 01:30:14;;;;;;;18.17;2.10;;;;;;;12.85;70.18;100117.03;5096209;28;20237;-60
2022/12/24 01:32:42;;;;;;;10.97;1.83;;;;;;;12.81;70.31;100121.88;5106860;28;20212;-61
2022/12/24 01:35:11;;;;;;;12.17;2.47;;;;;;;12.80;71.43;100128.19;5101683;28;20264;-61
2022/12/24 01:37:39;;;;;;;14.77;2.20;;;;;;;12.80;71.57;100138.84;5102160;28;20222;-61
2022/12/24 01:45:47;;;;;;;14.47;2.30;;;;;;;12.63;71.62;100153.19;5090673;28;20233;-62
2022/12/24 01:48:33;;;;;;;10.90;2.13;;;;;;;12.66;70.62;100158.19;5102010;28;20205;-60
2022/12/24 01:51:06;;;;;;;12.73;2.10;;;;;;;12.62;71.12;100162.16;5104800;28;20671;-60
2022/12/24 01:53:37;;;;;;;12.60;2.33;;;;;;;12.61;70.50;100160.50;5100728;28;20210;-60
2022/12/24 01:56:09;;;;;;;10.00;1.80;;;;;;;12.53;71.46;100164.00;5103352;28;20226;-61
2022/12/24 01:58:39;;;;;;;11.30;2.00;;;;;;;12.54;71.43;100167.50;5102345;28;20213;-61
2022/12/24 02:01:07;;;;;;;17.67;2.70;;;;;;;12.47;71.68;100163.84;5103269;28;20214;-62
2022/12/24 02:03:35;;;;;;;13.77;2.70;;;;;;;12.44;72.33;100181.78;5101682;28;20214;-61
2022/12/24 02:06:04;;;;;;;12.67;1.60;;;;;;;12.38;72.60;100185.13;5101922;28;20213;-61
2022/12/24 02:08:39;;;;;;;14.07;2.00;;;;;;;12.35;73.10;100188.09;5103042;27;20742;-61
2022/12/24 02:11:13;;;;;;;17.10;3.13;;;;;;;12.36;73.26;100199.56;5106722;28;20202;-61
2022/12/24 02:13:43;;;;;;;11.20;2.03;;;;;;;12.39;73.41;100194.75;5103453;28;20222;-61
2022/12/24 02:16:25;;;;;;;12.57;1.97;;;;;;;12.54;72.88;100191.44;5105807;28;20238;-60
2022/12/24 02:19:00;;;;;;;13.60;2.27;;;;;;;12.56;73.59;100186.78;5104851;28;20213;-60
2022/12/24 02:21:41;;;;;;;12.73;2.53;;;;;;;12.63;72.83;100201.06;5106759;28;20745;-61
2022/12/24 02:24:26;;;;;;;16.50;2.70;;;;;;;12.69;72.08;100185.25;5109661;28;20206;-61
2022/12/24 02:27:12;;;;;;;18.70;2.67;;;;;;;12.68;72.54;100186.25;5101434;28;20199;-61
2022/12/24 02:29:56;;;;;;;12.40;2.93;;;;;;;12.62;72.67;100178.13;5099233;28;20238;-61
2022/12/24 02:32:33;;;;;;;13.73;2.17;;;;;;;12.63;72.58;100179.78;5112759;28;20282;-61
2022/12/24 02:35:09;;;;;;;13.17;2.47;;;;;;;12.61;73.34;100181.78;5105411;28;20214;-60
2022/12/24 02:37:40;;;;;;;13.97;2.03;;;;;;;12.59;73.90;100192.56;5103263;28;20289;-61
2022/12/24 02:40:13;;;;;;;14.67;2.50;;;;;;;12.61;73.14;100187.09;5106814;28;20252;-59
2022/12/24 02:42:49;;;;;;;11.70;2.40;;;;;;;12.55;74.14;100185.94;5106006;28;20228;-60
2022/12/24 02:45:22;;;;;;;13.00;2.43;;;;;;;12.56;74.23;100186.78;5105759;28;20218;-59
2022/12/24 02:47:51;;;;;;;11.10;2.60;;;;;;;12.52;74.72;100188.09;5100014;28;20238;-60
2022/12/24 02:50:20;;;;;;;9.37;1.60;;;;;;;12.55;74.97;100187.78;5110204;28;20285;-60
2022/12/24 02:52:48;;;;;;;10.93;1.83;;;;;;;12.58;75.21;100198.06;5105501;28;20415;-60
2022/12/24 02:55:19;;;;;;;9.97;1.90;;;;;;;12.59;74.96;100192.56;5103465;28;20323;-61
2022/12/24 02:57:58;;;;;;;15.23;2.93;;;;;;;12.66;74.41;100200.72;5101727;28;20580;-61
2022/12/24 03:00:35;;;;;;;13.23;1.93;;;;;;;12.58;74.23;100198.06;5092868;28;20215;-59
2022/12/24 03:03:22;;;;;;;10.13;1.67;;;;;;;12.59;74.93;100197.91;5105196;28;20631;-60
2022/12/24 03:05:58;;;;;;;8.80;1.93;;;;;;;12.59;74.30;100189.09;5106121;28;20198;-60
2022/12/24 03:08:34;;;;;;;11.87;1.93;;;;;;;12.56;74.28;100200.91;5103717;28;20234;-61
2022/12/24 03:11:08;;;;;;;10.77;1.70;;;;;;;12.47;75.07;100196.59;5107765;28;20593;-60
2022/12/24 03:13:36;;;;;;;11.60;2.20;;;;;;;12.43;74.68;100203.22;5107392;28;20233;-60
2022/12/24 03:16:09;;;;;;;10.03;2.00;;;;;;;12.35;75.51;100213.88;5107678;27;20234;-60
2022/12/24 03:18:40;;;;;;;14.37;2.13;;;;;;;12.34;75.32;100223.66;5106705;28;20211;-60
2022/12/24 03:21:11;;;;;;;10.33;1.87;;;;;;;12.30;75.47;100227.66;5104747;28;20202;-61
2022/12/24 03:23:39;;;;;;;14.90;2.30;;;;;;;12.31;75.50;100223.97;5106630;28;20205;-60
2022/12/24 03:26:10;;;;;;;14.60;2.37;;;;;;;12.28;75.95;100223.50;5108831;28;20230;-60
2022/12/24 03:28:40;;;;;;;13.93;2.60;;;;;;;12.32;76.47;100224.81;5105672;28;20252;-61
2022/12/24 03:31:10;;;;;;;11.63;2.03;;;;;;;12.32;76.15;100244.25;5088493;28;20281;-59
2022/12/24 03:33:39;;;;;;;17.10;2.27;;;;;;;12.32;76.34;100241.59;5086291;28;20668;-59
2022/12/24 03:36:08;;;;;;;10.37;2.27;;;;;;;12.31;76.67;100255.09;5084489;28;20306;-59
2022/12/24 03:38:36;;;;;;;11.37;1.90;;;;;;;12.28;77.11;100244.75;5083441;28;20207;-61
2022/12/24 03:41:05;;;;;;;10.00;2.27;;;;;;;12.34;77.41;100242.28;5085902;28;20699;-61
2022/12/24 03:43:32;;;;;;;9.50;2.00;;;;;;;12.37;77.40;100241.97;5086790;28;20207;-61
2022/12/24 03:46:05;;;;;;;20.13;3.07;;;;;;;12.43;78.11;100243.94;5083619;28;20199;-61
2022/12/24 03:48:35;;;;;;;11.40;1.97;;;;;;;12.50;76.91;100237.94;5082941;28;20241;-61
2022/12/24 03:51:03;;;;;;;16.07;2.37;;;;;;;12.44;77.38;100234.13;5082349;28;20218;-61
2022/12/24 03:53:31;;;;;;;16.43;2.83;;;;;;;12.45;77.32;100241.13;5084040;28;20302;-62
2022/12/24 03:55:59;;;;;;;14.63;2.63;;;;;;;12.34;77.74;100244.94;5081441;28;20223;-61
2022/12/24 03:58:26;;;;;;;14.57;2.37;;;;;;;12.36;78.57;100255.41;5080464;28;20275;-60
2022/12/24 04:00:54;;;;;;;14.67;2.67;;;;;;;12.36;78.11;100256.25;5086124;28;20256;-60
2022/12/24 04:03:22;;;;;;;16.73;3.03;;;;;;;12.32;78.60;100249.56;5083995;28;20211;-60
2022/12/24 04:06:01;;;;;;;15.30;2.77;;;;;;;12.34;79.11;100258.22;5086583;28;20685;-60
2022/12/24 04:08:29;;;;;;;13.97;2.70;;;;;;;12.42;79.27;100268.03;5082777;28;20422;-61
2022/12/24 04:10:57;;;;;;;14.73;2.47;;;;;;;12.46;78.39;100266.72;5081573;28;20215;-61
2022/12/24 04:13:25;;;;;;;13.33;2.43;;;;;;;12.47;78.19;100256.91;5076874;28;20600;-60
2022/12/24 04:15:58;;;;;;;14.07;2.37;;;;;;;12.46;77.59;100257.91;5083845;28;20505;-60
2022/12/24 04:18:26;;;;;;;12.17;2.93;;;;;;;12.44;79.30;100261.56;5084789;28;20213;-61
2022/12/24 04:20:54;;;;;;;12.63;2.60;;;;;;;12.50;78.53;100267.22;5086317;28;20714;-61
2022/12/24 04:23:24;;;;;;;9.30;2.27;;;;;;;12.51;78.39;100266.22;5088202;28;20833;-60
2022/12/24 04:25:51;;;;;;;19.07;2.60;;;;;;;12.52;77.82;100270.53;5084557;28;20237;-61
2022/12/24 04:28:19;;;;;;;11.07;1.93;;;;;;;12.43;78.71;100281.19;5081638;28;20296;-60
2022/12/24 04:30:47;;;;;;;14.07;2.20;;;;;;;12.42;78.94;100274.19;5081983;28;20353;-60
2022/12/24 04:33:15;;;;;;;13.20;2.50;;;;;;;12.48;79.22;100274.53;5087156;28;20293;-61
2022/12/24 04:35:42;;;;;;;13.93;3.20;;;;;;;12.52;79.33;100271.38;5082825;28;20982;-61
2022/12/24 04:38:10;;;;;;;16.40;2.37;;;;;;;12.57;79.54;100270.91;5082344;28;20268;-61
2022/12/24 04:40:39;;;;;;;14.50;2.97;;;;;;;12.56;79.18;100272.72;5081342;28;20210;-61
2022/12/24 04:43:07;;;;;;;8.63;1.80;;;;;;;12.57;79.07;100270.91;5086463;28;20199;-61
2022/12/24 04:45:35;;;;;;;11.40;2.57;;;;;;;12.56;78.92;100279.88;5082634;28;20542;-61
2022/12/24 04:48:03;;;;;;;17.03;3.00;;;;;;;12.54;78.43;100282.69;5080962;28;20777;-61
2022/12/24 04:50:31;;;;;;;12.73;2.40;;;;;;;12.52;79.34;100284.69;5082695;28;20199;-62
2022/12/24 04:52:58;;;;;;;16.53;3.20;;;;;;;12.53;79.41;100288.16;5084332;28;20214;-61
2022/12/24 04:55:26;;;;;;;15.93;2.60;;;;;;;12.58;79.37;100283.16;5079821;28;20215;-61
2022/12/24 04:57:55;;;;;;;18.07;3.50;;;;;;;12.53;79.65;100280.19;5085141;28;20655;-62
2022/12/24 05:00:23;;;;;;;16.20;3.70;;;;;;;12.57;79.99;100286.84;5085506;28;20222;-62
2022/12/24 05:02:51;;;;;;;13.97;3.27;;;;;;;12.64;79.09;100282.53;5082410;28;20213;-61
2022/12/24 05:05:20;;;;;;;19.53;3.80;;;;;;;12.60;79.24;100276.69;5080716;28;20227;-61
2022/12/24 05:07:47;;;;;;;16.17;3.20;;;;;;;12.58;79.49;100272.53;5085981;28;20660;-59
2022/12/24 05:10:15;;;;;;;20.20;3.40;;;;;;;12.57;79.70;100271.72;5086149;28;20591;-60
2022/12/24 05:12:43;;;;;;;19.10;2.60;;;;;;;12.56;79.48;100274.53;5087029;28;20234;-60
2022/12/24 05:15:12;;;;;;;23.30;3.17;;;;;;;12.58;79.60;100269.88;5081648;28;20202;-60
2022/12/24 05:17:40;;;;;;;18.33;2.73;;;;;;;12.59;80.23;100279.50;5086025;28;20238;-60
2022/12/24 05:20:08;;;;;;;13.10;2.83;;;;;;;12.62;79.43;100284.50;5083558;28;20211;-60
2022/12/24 05:28:07;;;;;;;16.77;3.83;;;;;;;12.58;79.97;100284.00;5086451;28;20203;-61
2022/12/24 05:30:36;;;;;;;16.57;2.83;;;;;;;12.63;79.50;100278.19;5082276;28;20594;-61
2022/12/24 05:33:04;;;;;;;27.70;3.87;;;;;;;12.60;79.73;100276.69;5089589;28;20240;-60
2022/12/24 05:35:31;;;;;;;18.20;3.20;;;;;;;12.58;79.43;100276.03;5081792;28;20207;-60
2022/12/24 05:37:59;;;;;;;20.97;3.23;;;;;;;12.57;79.37;100282.38;5078986;28;20245;-61
2022/12/24 05:40:27;;;;;;;11.03;2.70;;;;;;;12.56;79.63;100298.47;5083137;28;20203;-60
2022/12/24 05:42:54;;;;;;;18.07;2.83;;;;;;;12.55;79.43;100299.47;5088784;28;20639;-61
2022/12/24 05:45:22;;;;;;;20.07;3.90;;;;;;;12.54;80.01;100306.63;5086144;28;20238;-60
2022/12/24 05:47:51;;;;;;;15.47;3.77;;;;;;;12.57;79.89;100298.31;5084031;28;20208;-61
2022/12/24 05:50:19;;;;;;;20.27;3.67;;;;;;;12.57;79.39;100308.13;5087296;28;20211;-62
2022/12/24 05:52:47;;;;;;;20.43;3.87;;;;;;;12.55;80.15;100310.94;5086411;28;20716;-61
2022/12/24 05:55:15;;;;;;;21.23;3.57;;;;;;;12.59;80.13;100311.44;5091710;28;20209;-60
2022/12/24 05:57:42;;;;;;;24.53;3.77;;;;;;;12.57;79.61;100308.13;5079471;28;20337;-59
2022/12/24 06:00:11;;;;;;;19.60;3.50;;;;;;;12.57;79.43;100310.78;5084836;28;20199;-59
2022/12/24 06:02:38;;;;;;;19.47;3.70;;;;;;;12.57;79.55;100306.31;5084369;28;20214;-60
2022/12/24 06:05:08;;;;;;;21.30;3.93;;;;;;;12.51;79.30;100314.09;5088469;28;20214;-61
2022/12/24 06:07:36;;;;;;;20.73;3.20;;;;;;;12.46;79.73;100313.75;5082738;28;20566;-59
2022/12/24 06:10:05;;;;;;;16.53;3.50;;;;;;;12.47;80.03;100318.91;5086851;28;20203;-60
2022/12/24 06:12:35;;;;;;;22.23;3.57;;;;;;;12.49;79.77;100321.41;5090502;28;20231;-60
2022/12/24 06:15:03;;;;;;;27.97;4.37;;;;;;;12.53;80.13;100325.41;5088656;28;20243;-60
2022/12/24 06:17:31;;;;;;;17.90;3.97;;;;;;;12.55;79.87;100331.41;5089675;28;20929;-59
2022/12/24 06:19:59;;;;;;;23.57;4.43;;;;;;;12.62;78.96;100332.41;5085174;28;20643;-59
2022/12/24 06:22:28;;;;;;;21.40;3.63;;;;;;;12.54;78.84;100348.34;5083979;28;20242;-58
2022/12/24 06:24:56;;;;;;;18.43;3.90;;;;;;;12.52;79.02;100337.03;5085645;28;20218;-61
2022/12/24 06:27:23;;;;;;;16.57;3.90;;;;;;;12.46;79.50;100340.34;5089601;28;20210;-60
2022/12/24 06:29:51;;;;;;;18.60;3.40;;;;;;;12.40;78.96;100345.31;5083283;28;20247;-61
2022/12/24 06:32:20;;;;;;;23.47;3.70;;;;;;;12.40;79.53;100344.50;5086097;28;20211;-61
2022/12/24 06:34:48;;;;;;;17.23;2.93;;;;;;;12.33;79.65;100338.97;5085396;28;20270;-59
2022/12/24 06:37:17;;;;;;;21.67;3.93;;;;;;;12.34;79.65;100335.34;5087108;28;20577;-60
2022/12/24 06:39:46;;;;;;;21.63;3.53;;;;;;;12.36;79.57;100349.31;5081572;28;20648;-60
2022/12/24 06:42:14;;;;;;;20.33;3.23;;;;;;;12.39;79.05;100354.31;5086649;28;20195;-61
2022/12/24 06:44:44;;;;;;;22.17;3.37;;;;;;;12.37;79.10;100348.31;5086789;28;20216;-60
2022/12/24 06:47:11;;;;;;;21.87;3.83;;;;;;;12.41;79.04;100357.63;5084891;28;20298;-61
2022/12/24 06:49:39;;;;;;;27.57;4.60;;;;;;;12.47;79.14;100358.81;5082400;28;20744;-61
2022/12/24 06:52:07;;;;;;;22.50;4.37;;;;;;;12.50;78.86;100360.28;5088846;28;20303;-59
2022/12/24 06:54:35;;;;;;;20.07;3.23;;;;;;;12.53;78.28;100360.81;5086246;28;20830;-61
2022/12/24 06:57:05;;;;;;;17.57;3.40;;;;;;;12.55;78.15;100369.47;5079934;28;20226;-62
2022/12/24 06:59:33;;;;;;;19.73;4.00;;;;;;;12.58;78.06;100370.94;5087158;28;20211;-61
2022/12/24 07:02:01;;;;;;;22.07;3.67;;;;;;;12.60;78.19;100377.78;5086266;28;20228;-61
2022/12/24 07:04:30;;;;;;;19.57;3.73;;;;;;;12.60;78.13;100375.13;5083921;28;20252;-60
2022/12/24 07:06:57;;;;;;;18.47;3.30;;;;;;;12.59;77.88;100380.59;5083415;28;20215;-61
2022/12/24 07:09:25;;;;;;;25.23;3.73;;;;;;;12.57;78.21;100393.25;5086957;28;20214;-60
2022/12/24 07:11:53;;;;;;;20.90;3.80;;;;;;;12.57;77.97;100390.59;5085682;28;20226;-61
2022/12/24 07:14:22;;;;;;;21.03;3.33;;;;;;;12.61;77.58;100394.56;5085424;28;20202;-61
2022/12/24 07:16:50;;;;;;;20.07;4.10;;;;;;;12.59;78.06;100376.09;5087030;28;20202;-61
2022/12/24 07:19:25;;;;;;;20.87;4.07;;;;;;;12.57;77.96;100387.94;5083931;28;20199;-60
2022/12/24 07:21:53;;;;;;;19.43;4.13;;;;;;;12.53;78.38;100390.06;5083700;28;20207;-61
2022/12/24 07:24:20;;;;;;;21.57;3.70;;;;;;;12.55;78.93;100397.88;5088873;28;20210;-61
2022/12/24 07:26:48;;;;;;;19.03;3.73;;;;;;;12.55;78.78;100397.88;5082306;28;20628;-62
2022/12/24 07:29:16;;;;;;;21.77;3.70;;;;;;;12.61;77.72;100399.91;5084622;28;20213;-61
2022/12/24 07:31:45;;;;;;;19.17;4.03;;;;;;;12.57;78.07;100394.09;5082942;28;20242;-60
2022/12/24 07:34:13;;;;;;;25.00;4.10;;;;;;;12.65;77.43;100395.94;5084515;28;20616;-61
2022/12/24 07:36:40;;;;;;;19.73;3.23;;;;;;;12.53;77.97;100397.22;5081300;28;20208;-61
2022/12/24 07:39:08;;;;;;;14.77;3.33;;;;;;;12.53;78.53;100392.72;5082663;28;20325;-61
2022/12/24 07:41:36;;;;;;;27.50;5.40;;;;;;;12.50;78.97;100395.69;5084977;28;20202;-61
2022/12/24 07:44:11;;;;;;;20.63;3.80;;;;;;;12.53;78.80;100402.53;5086857;28;20293;-60
2022/12/24 07:46:38;;;;;;;25.53;4.07;;;;;;;12.53;78.87;100399.88;5083235;28;20318;-61
2022/12/24 07:49:08;;;;;;;22.43;3.90;;;;;;;12.59;78.02;100404.53;5082280;28;20199;-59
2022/12/24 07:51:36;;;;;;;18.83;3.70;;;;;;;12.56;78.30;100413.69;5083419;28;20203;-59
2022/12/24 07:54:04;;;;;;;21.23;3.37;;;;;;;12.55;78.55;100411.19;5083113;28;20561;-62
2022/12/24 07:56:32;;;;;;;25.27;3.60;;;;;;;12.54;78.63;100420.16;5085637;28;20222;-62
2022/12/24 07:59:00;;;;;;;19.43;3.67;;;;;;;12.61;78.30;100431.81;5085538;28;20291;-61
2022/12/24 08:01:28;;;;;;;27.53;4.70;;;;;;;12.62;78.38;100433.47;5084223;28;20305;-60
2022/12/24 08:03:56;;;;;;;19.23;3.67;;;;;;;12.64;78.03;100432.34;5082521;28;20266;-61
2022/12/24 08:06:25;;;;;;;23.10;3.93;;;;;;;12.70;77.42;100438.81;5085046;28;20749;-62
2022/12/24 08:08:53;;;;;;;27.83;4.53;;;;;;;12.73;77.71;100435.84;5080300;28;20720;-61
2022/12/24 08:11:20;;;;;;;17.60;4.37;;;;;;;12.75;77.08;100439.19;5082097;28;20239;-59
2022/12/24 08:13:48;;;;;;;24.00;5.03;;;;;;;12.75;77.45;100449.81;5083787;28;20549;-61
2022/12/24 08:16:16;;;;;;;19.40;3.10;;;;;;;12.76;77.61;100446.97;5085975;28;20641;-61
2022/12/24 08:18:44;;;;;;;16.47;3.63;;;;;;;12.79;76.87;100454.66;5082084;28;20848;-61
2022/12/24 08:21:11;;;;;;;19.30;4.30;;;;;;;12.80;77.15;100458.16;5083642;28;20293;-61
2022/12/24 08:23:44;;;;;;;15.90;3.80;;;;;;;12.80;77.08;100450.16;5086229;28;20616;-61
2022/12/24 08:26:12;;;;;;;26.53;4.50;;;;;;;12.81;77.05;100454.50;5081517;28;20303;-61
2022/12/24 08:28:41;;;;;;;28.50;4.43;;;;;;;12.87;76.83;100451.16;5084319;28;20260;-60
2022/12/24 08:31:09;;;;;;;20.30;4.20;;;;;;;12.85;76.96;100453.16;5081377;28;20321;-61
2022/12/24 08:33:37;;;;;;;27.03;4.83;;;;;;;12.88;76.52;100444.00;5083819;28;20248;-60
2022/12/24 08:36:09;;;;;;;24.33;4.17;;;;;;;12.94;76.33;100443.34;5083555;28;20211;-62
2022/12/24 08:38:37;;;;;;;22.93;3.93;;;;;;;12.97;76.18;100443.88;5081685;28;20310;-62
2022/12/24 08:41:07;;;;;;;27.23;5.27;;;;;;;13.00;76.14;100445.38;5082521;28;20208;-60
2022/12/24 08:43:35;;;;;;;26.70;5.10;;;;;;;13.12;75.12;100450.22;5087463;28;20212;-62
2022/12/24 08:46:05;;;;;;;19.37;3.47;;;;;;;13.22;75.66;100446.59;5082505;28;20216;-61
2022/12/24 08:48:34;;;;;;;27.67;4.30;;;;;;;13.37;74.79;100444.94;5080126;28;20211;-61
2022/12/24 08:51:06;;;;;;;17.80;3.73;;;;;;;13.51;73.67;100446.94;5083090;28;20328;-60
2022/12/24 08:53:34;;;;;;;18.57;3.73;;;;;;;13.64;72.88;100459.72;5082515;28;20554;-61
2022/12/24 08:56:03;;;;;;;26.27;4.80;;;;;;;13.65;73.25;100459.56;5078695;28;20254;-61
2022/12/24 08:58:32;;;;;;;21.43;3.57;;;;;;;13.82;72.81;100461.19;5078537;28;20242;-60
2022/12/24 09:01:00;;;;;;;14.47;3.97;;;;;;;13.97;72.21;100457.84;5083783;28;20225;-61
2022/12/24 09:03:29;;;;;;;20.67;3.70;;;;;;;14.11;71.39;100459.81;5082034;28;20213;-60
2022/12/24 09:05:57;;;;;;;18.07;3.40;;;;;;;14.21;70.58;100463.94;5083955;28;20213;-61
2022/12/24 09:08:25;;;;;;;19.93;3.73;;;;;;;14.19;71.00;100463.28;5080830;28;20210;-61
2022/12/24 09:10:55;;;;;;;20.10;3.87;;;;;;;14.34;70.55;100462.59;5082283;28;20214;-60
2022/12/24 09:13:22;;;;;;;18.77;4.40;;;;;;;14.46;70.33;100469.22;5082218;28;20240;-60
2022/12/24 09:15:55;;;;;;;23.43;3.87;;;;;;;14.56;69.94;100481.34;5086083;28;20273;-60
2022/12/24 09:18:23;;;;;;;26.20;4.67;;;;;;;14.68;69.08;100477.31;5081547;28;20231;-60
2022/12/24 09:20:51;;;;;;;23.10;3.97;;;;;;;14.67;69.08;100493.50;5082694;28;20206;-61
2022/12/24 09:23:24;;;;;;;22.33;5.17;;;;;;;14.80;68.55;100495.56;5082527;28;20210;-61
2022/12/24 09:25:51;;;;;;;17.60;3.47;;;;;;;14.69;68.51;100484.28;5081908;28;20567;-60
2022/12/24 09:28:19;;;;;;;23.17;4.13;;;;;;;14.67;68.95;100489.00;5083827;28;20206;-61
2022/12/24 09:30:57;;;;;;;23.07;4.73;;;;;;;14.64;69.48;100491.16;5085005;28;20239;-60
2022/12/24 09:33:25;;;;;;;20.80;4.03;;;;;;;14.68;69.14;100501.31;5082192;28;20275;-61
2022/12/24 09:35:54;;;;;;;27.83;4.90;;;;;;;14.71;69.02;100508.13;5087395;28;20218;-60
2022/12/24 09:38:22;;;;;;;25.97;4.40;;;;;;;14.79;69.02;100512.59;5081250;28;20235;-61
2022/12/24 09:40:51;;;;;;;20.43;4.23;;;;;;;15.07;67.55;100506.59;5080938;28;20563;-61
2022/12/24 09:43:22;;;;;;;20.77;4.03;;;;;;;15.20;67.24;100516.72;5085940;28;20543;-60
2022/12/24 09:46:09;;;;;;;22.20;4.30;;;;;;;15.10;66.95;100529.47;5081717;28;20293;-62
2022/12/24 09:48:41;;;;;;;24.50;4.20;;;;;;;15.30;66.66;100522.63;5085799;28;20210;-61
2022/12/24 09:51:11;;;;;;;25.23;4.27;;;;;;;15.32;65.55;100525.97;5084674;28;20198;-61
2022/12/24 09:53:43;;;;;;;16.43;3.77;;;;;;;15.33;65.94;100537.50;5081642;28;20207;-60
2022/12/24 09:56:15;;;;;;;25.53;3.93;;;;;;;15.26;66.30;100526.69;5080292;28;20207;-60
2022/12/24 09:58:47;;;;;;;25.97;4.03;;;;;;;15.28;66.11;100534.53;5084555;28;20325;-59
2022/12/24 10:01:18;;;;;;;24.57;5.43;;;;;;;15.25;66.64;100550.91;5080834;28;20291;-61
2022/12/24 10:03:46;;;;;;;24.53;5.47;;;;;;;15.26;65.78;100534.72;5086590;28;20215;-61
2022/12/24 10:06:18;;;;;;;22.67;4.60;;;;;;;15.22;66.21;100554.75;5081009;28;20212;-61
2022/12/24 10:09:08;;;;;;;20.67;3.90;;;;;;;15.19;66.25;100562.31;5079557;28;20250;-61
2022/12/24 10:11:42;;;;;;;28.43;5.10;;;;;;;15.06;66.50;100560.19;5085106;28;20199;-61
2022/12/24 10:14:24;;;;;;;20.93;4.33;;;;;;;15.06;66.84;100561.03;5083260;28;20239;-62
2022/12/24 10:17:04;;;;;;;22.90;4.57;;;;;;;15.05;66.57;100561.19;5083387;28;20263;-61
2022/12/24 10:19:44;;;;;;;16.77;4.03;;;;;;;15.05;66.65;100566.53;5079593;28;20317;-60
2022/12/24 10:22:21;;;;;;;20.73;4.03;;;;;;;15.18;67.07;100568.66;5081666;28;20203;-61
2022/12/24 10:24:59;;;;;;;22.03;4.37;;;;;;;15.23;66.10;100563.59;5082953;28;20203;-61
2022/12/24 10:27:33;;;;;;;22.73;4.53;;;;;;;15.16;66.58;100568.81;5078400;28;20214;-61
2022/12/24 10:30:06;;;;;;;28.60;4.57;;;;;;;15.08;66.76;100563.53;5073573;28;20361;-62
2022/12/24 10:32:46;;;;;;;17.53;4.23;;;;;;;15.05;67.28;100563.88;5081886;28;20295;-61
2022/12/24 10:35:22;;;;;;;25.47;4.90;;;;;;;15.01;66.66;100559.91;5084806;28;20235;-61
2022/12/24 10:37:51;;;;;;;19.37;5.00;;;;;;;14.83;67.41;100554.81;5083533;28;20213;-61
2022/12/24 10:40:29;;;;;;;20.17;3.80;;;;;;;14.91;67.71;100553.94;5085460;28;20280;-61
2022/12/24 10:42:57;;;;;;;19.00;3.80;;;;;;;15.04;66.89;100562.19;5086676;28;20230;-60
2022/12/24 10:45:33;;;;;;;22.63;3.57;;;;;;;15.00;66.78;100556.41;5083922;28;20286;-60
2022/12/24 10:48:07;;;;;;;32.97;4.97;;;;;;;14.97;66.43;100548.72;5087069;28;20684;-60
2022/12/24 10:50:41;;;;;;;18.20;4.00;;;;;;;15.04;67.37;100554.19;5081413;28;20222;-61
2022/12/24 10:53:17;;;;;;;22.87;4.97;;;;;;;15.37;66.05;100552.19;5088247;28;20205;-61
2022/12/24 10:55:47;;;;;;;20.10;4.37;;;;;;;15.34;66.20;100571.22;5085197;28;20305;-61
2022/12/24 10:58:18;;;;;;;21.20;3.77;;;;;;;15.40;66.09;100570.50;5084987;28;20632;-60
2022/12/24 11:00:51;;;;;;;25.23;4.50;;;;;;;15.58;65.27;100572.94;5085120;28;20237;-61
2022/12/24 11:03:29;;;;;;;21.37;4.53;;;;;;;15.56;64.50;100565.13;5085603;28;20206;-60
2022/12/24 11:06:19;;;;;;;17.43;3.30;;;;;;;15.43;64.73;100557.63;5084924;28;20281;-60
2022/12/24 11:08:47;;;;;;;21.03;3.73;;;;;;;15.22;65.39;100556.59;5084340;28;20286;-60
2022/12/24 11:11:18;;;;;;;15.10;3.60;;;;;;;15.04;66.42;100559.53;5088512;28;20195;-60
2022/12/24 11:13:55;;;;;;;24.70;4.70;;;;;;;14.89;66.88;100563.94;5090446;28;20222;-60
2022/12/24 11:16:28;;;;;;;20.83;3.50;;;;;;;14.82;67.01;100558.47;5085105;28;20242;-61
2022/12/24 11:19:01;;;;;;;27.43;4.90;;;;;;;14.59;67.21;100571.75;5086060;28;20614;-59
2022/12/24 11:21:31;;;;;;;18.70;3.80;;;;;;;14.47;68.24;100583.78;5081670;28;20306;-60
2022/12/24 11:24:02;;;;;;;19.47;3.70;;;;;;;14.43;68.45;100573.59;5085493;28;20591;-60
2022/12/24 11:26:31;;;;;;;19.53;3.80;;;;;;;14.48;68.79;100580.13;5076935;28;20222;-60
2022/12/24 11:29:21;;;;;;;18.77;4.63;;;;;;;14.49;68.96;100576.44;5068693;28;20207;-60
2022/12/24 11:31:51;;;;;;;20.93;4.47;;;;;;;14.49;69.07;100576.44;5094871;28;20814;-61
2022/12/24 11:34:27;;;;;;;21.10;4.53;;;;;;;14.48;69.44;100577.44;5101246;28;20217;-62
2022/12/24 11:37:07;;;;;;;22.73;4.90;;;;;;;14.53;69.08;100569.75;5106950;28;20199;-63
2022/12/24 11:39:46;;;;;;;18.83;4.53;;;;;;;14.46;69.50;100571.44;5105810;27;20257;-62
2022/12/24 11:42:25;;;;;;;30.10;5.40;;;;;;;14.38;70.47;100567.94;5105549;27;20643;-63